sensor_id;sensor_type;location;lat;lon;timestamp;P1;P2;P0
47079;PMS5003;33067;49.296;14.470;2022-07-17T00:00:52;22;22;
47079;PMS5003;33067;49.296;14.470;2022-07-17T00:03:17;23;21;
47079;PMS5003;33067;49.296;14.470;2022-07-17T00:05:43;18;18;
47079;PMS5003;33067;49.296;14.470;2022-07-17T00:08:09;27;27;
47079;PMS5003;33067;49.296;14.470;2022-07-17T00:10:34;21;20;
47079;PMS5003;33067;49.296;14.470;2022-07-17T00:12:59;24;24;
47079;PMS5003;33067;49.296;14.470;2022-07-17T00:15:24;22;20;
47079;PMS5003;33067;49.296;14.470;2022-07-17T00:17:49;19;19;
47079;PMS5003;33067;49.296;14.470;2022-07-17T00:20:14;28;28;
47079;PMS5003;33067;49.296;14.470;2022-07-17T00:22:39;25;25;
47079;PMS5003;33067;49.296;14.470;2022-07-17T00:25:05;25;25;
47079;PMS5003;33067;49.296;14.470;2022-07-17T00:27:29;24;24;
47079;PMS5003;33067;49.296;14.470;2022-07-17T00:29:55;19;19;
47079;PMS5003;33067;49.296;14.470;2022-07-17T00:32:20;26;25;
47079;PMS5003;33067;49.296;14.470;2022-07-17T00:34:46;24;23;
47079;PMS5003;33067;49.296;14.470;2022-07-17T00:37:11;22;21;
47079;PMS5003;33067;49.296;14.470;2022-07-17T00:39:36;23;23;
47079;PMS5003;33067;49.296;14.470;2022-07-17T00:42:01;21;20;
47079;PMS5003;33067;49.296;14.470;2022-07-17T00:44:27;22;22;
47079;PMS5003;33067;49.296;14.470;2022-07-17T00:46:53;24;22;
47079;PMS5003;33067;49.296;14.470;2022-07-17T00:49:19;26;23;
47079;PMS5003;33067;49.296;14.470;2022-07-17T00:51:44;21;20;
47079;PMS5003;33067;49.296;14.470;2022-07-17T00:54:10;21;20;
47079;PMS5003;33067;49.296;14.470;2022-07-17T00:56:36;21;19;
47079;PMS5003;33067;49.296;14.470;2022-07-17T00:59:01;22;22;
47079;PMS5003;33067;49.296;14.470;2022-07-17T01:01:26;22;22;
47079;PMS5003;33067;49.296;14.470;2022-07-17T01:03:52;21;21;
47079;PMS5003;33067;49.296;14.470;2022-07-17T01:06:18;23;22;
47079;PMS5003;33067;49.296;14.470;2022-07-17T01:08:43;21;21;
47079;PMS5003;33067;49.296;14.470;2022-07-17T01:11:09;20;19;
47079;PMS5003;33067;49.296;14.470;2022-07-17T01:13:35;24;22;
47079;PMS5003;33067;49.296;14.470;2022-07-17T01:16:01;22;22;
47079;PMS5003;33067;49.296;14.470;2022-07-17T01:18:26;23;20;
47079;PMS5003;33067;49.296;14.470;2022-07-17T01:20:52;21;21;
47079;PMS5003;33067;49.296;14.470;2022-07-17T01:23:18;24;23;
47079;PMS5003;33067;49.296;14.470;2022-07-17T01:25:43;24;20;
47079;PMS5003;33067;49.296;14.470;2022-07-17T01:28:08;19;18;
47079;PMS5003;33067;49.296;14.470;2022-07-17T01:30:33;24;23;
47079;PMS5003;33067;49.296;14.470;2022-07-17T01:32:59;26;26;
47079;PMS5003;33067;49.296;14.470;2022-07-17T01:35:24;23;23;
47079;PMS5003;33067;49.296;14.470;2022-07-17T01:37:50;27;25;
47079;PMS5003;33067;49.296;14.470;2022-07-17T01:40:15;29;27;
47079;PMS5003;33067;49.296;14.470;2022-07-17T01:42:42;32;32;
47079;PMS5003;33067;49.296;14.470;2022-07-17T01:45:07;25;25;
47079;PMS5003;33067;49.296;14.470;2022-07-17T01:47:32;24;24;
47079;PMS5003;33067;49.296;14.470;2022-07-17T01:49:58;29;28;
47079;PMS5003;33067;49.296;14.470;2022-07-17T01:52:23;32;30;
47079;PMS5003;33067;49.296;14.470;2022-07-17T01:54:49;47;47;
47079;PMS5003;33067;49.296;14.470;2022-07-17T01:57:14;35;35;
47079;PMS5003;33067;49.296;14.470;2022-07-17T01:59:40;42;42;
47079;PMS5003;33067;49.296;14.470;2022-07-17T02:02:05;32;32;
47079;PMS5003;33067;49.296;14.470;2022-07-17T02:04:31;28;27;
47079;PMS5003;33067;49.296;14.470;2022-07-17T02:06:56;31;31;
47079;PMS5003;33067;49.296;14.470;2022-07-17T02:09:21;26;26;
47079;PMS5003;33067;49.296;14.470;2022-07-17T02:12:59;25;25;
47079;PMS5003;33067;49.296;14.470;2022-07-17T02:15:24;29;29;
47079;PMS5003;33067;49.296;14.470;2022-07-17T02:17:50;25;24;
47079;PMS5003;33067;49.296;14.470;2022-07-17T02:20:15;26;26;
47079;PMS5003;33067;49.296;14.470;2022-07-17T02:22:41;33;32;
47079;PMS5003;33067;49.296;14.470;2022-07-17T02:25:07;22;22;
47079;PMS5003;33067;49.296;14.470;2022-07-17T02:27:33;25;20;
47079;PMS5003;33067;49.296;14.470;2022-07-17T02:30:00;23;22;
47079;PMS5003;33067;49.296;14.470;2022-07-17T02:32:23;20;20;
47079;PMS5003;33067;49.296;14.470;2022-07-17T02:34:48;21;21;
47079;PMS5003;33067;49.296;14.470;2022-07-17T02:37:14;21;21;
47079;PMS5003;33067;49.296;14.470;2022-07-17T02:39:39;23;21;
47079;PMS5003;33067;49.296;14.470;2022-07-17T02:42:05;25;21;
47079;PMS5003;33067;49.296;14.470;2022-07-17T02:44:30;20;20;
47079;PMS5003;33067;49.296;14.470;2022-07-17T02:46:56;22;22;
47079;PMS5003;33067;49.296;14.470;2022-07-17T02:49:22;27;27;
47079;PMS5003;33067;49.296;14.470;2022-07-17T02:51:47;25;24;
47079;PMS5003;33067;49.296;14.470;2022-07-17T02:54:13;21;20;
47079;PMS5003;33067;49.296;14.470;2022-07-17T02:56:38;20;20;
47079;PMS5003;33067;49.296;14.470;2022-07-17T02:59:04;21;21;
47079;PMS5003;33067;49.296;14.470;2022-07-17T03:01:30;20;20;
47079;PMS5003;33067;49.296;14.470;2022-07-17T03:03:55;19;19;
47079;PMS5003;33067;49.296;14.470;2022-07-17T03:06:21;19;19;
47079;PMS5003;33067;49.296;14.470;2022-07-17T03:08:46;15;15;
47079;PMS5003;33067;49.296;14.470;2022-07-17T03:11:12;14;14;
47079;PMS5003;33067;49.296;14.470;2022-07-17T03:13:37;17;16;
47079;PMS5003;33067;49.296;14.470;2022-07-17T03:16:02;18;18;
47079;PMS5003;33067;49.296;14.470;2022-07-17T03:18:28;21;21;
47079;PMS5003;33067;49.296;14.470;2022-07-17T03:20:53;12;12;
47079;PMS5003;33067;49.296;14.470;2022-07-17T03:23:19;15;15;
47079;PMS5003;33067;49.296;14.470;2022-07-17T03:25:45;19;19;
47079;PMS5003;33067;49.296;14.470;2022-07-17T03:28:10;16;15;
47079;PMS5003;33067;49.296;14.470;2022-07-17T03:30:36;14;13;
47079;PMS5003;33067;49.296;14.470;2022-07-17T03:33:01;18;18;
47079;PMS5003;33067;49.296;14.470;2022-07-17T03:35:27;22;21;
47079;PMS5003;33067;49.296;14.470;2022-07-17T03:37:53;28;28;
47079;PMS5003;33067;49.296;14.470;2022-07-17T03:40:18;35;35;
47079;PMS5003;33067;49.296;14.470;2022-07-17T03:42:43;30;29;
47079;PMS5003;33067;49.296;14.470;2022-07-17T03:45:09;28;28;
47079;PMS5003;33067;49.296;14.470;2022-07-17T03:47:34;24;23;
47079;PMS5003;33067;49.296;14.470;2022-07-17T03:50:00;26;24;
47079;PMS5003;33067;49.296;14.470;2022-07-17T03:52:25;21;21;
47079;PMS5003;33067;49.296;14.470;2022-07-17T03:54:50;22;22;
47079;PMS5003;33067;49.296;14.470;2022-07-17T03:57:16;20;20;
47079;PMS5003;33067;49.296;14.470;2022-07-17T03:59:41;22;19;
47079;PMS5003;33067;49.296;14.470;2022-07-17T04:02:07;20;19;
47079;PMS5003;33067;49.296;14.470;2022-07-17T04:04:33;20;20;
47079;PMS5003;33067;49.296;14.470;2022-07-17T04:06:58;21;21;
47079;PMS5003;33067;49.296;14.470;2022-07-17T04:09:24;22;22;
47079;PMS5003;33067;49.296;14.470;2022-07-17T04:11:49;21;21;
47079;PMS5003;33067;49.296;14.470;2022-07-17T04:14:14;23;21;
47079;PMS5003;33067;49.296;14.470;2022-07-17T04:16:40;22;19;
47079;PMS5003;33067;49.296;14.470;2022-07-17T04:19:05;20;19;
47079;PMS5003;33067;49.296;14.470;2022-07-17T04:21:31;22;22;
47079;PMS5003;33067;49.296;14.470;2022-07-17T04:23:56;19;19;
47079;PMS5003;33067;49.296;14.470;2022-07-17T04:26:22;18;18;
47079;PMS5003;33067;49.296;14.470;2022-07-17T04:28:47;21;21;
47079;PMS5003;33067;49.296;14.470;2022-07-17T04:31:13;27;27;
47079;PMS5003;33067;49.296;14.470;2022-07-17T04:33:39;53;52;
47079;PMS5003;33067;49.296;14.470;2022-07-17T04:36:04;33;33;
47079;PMS5003;33067;49.296;14.470;2022-07-17T04:38:30;19;19;
47079;PMS5003;33067;49.296;14.470;2022-07-17T04:40:55;24;24;
47079;PMS5003;33067;49.296;14.470;2022-07-17T04:43:21;17;17;
47079;PMS5003;33067;49.296;14.470;2022-07-17T04:45:46;21;20;
47079;PMS5003;33067;49.296;14.470;2022-07-17T04:48:11;18;18;
47079;PMS5003;33067;49.296;14.470;2022-07-17T04:50:37;16;16;
47079;PMS5003;33067;49.296;14.470;2022-07-17T04:53:02;18;17;
47079;PMS5003;33067;49.296;14.470;2022-07-17T04:55:28;18;16;
47079;PMS5003;33067;49.296;14.470;2022-07-17T04:57:53;18;18;
47079;PMS5003;33067;49.296;14.470;2022-07-17T05:00:18;18;17;
47079;PMS5003;33067;49.296;14.470;2022-07-17T05:02:44;16;16;
47079;PMS5003;33067;49.296;14.470;2022-07-17T05:05:09;17;17;
47079;PMS5003;33067;49.296;14.470;2022-07-17T05:07:34;16;16;
47079;PMS5003;33067;49.296;14.470;2022-07-17T05:10:00;26;21;
47079;PMS5003;33067;49.296;14.470;2022-07-17T05:12:25;18;18;
47079;PMS5003;33067;49.296;14.470;2022-07-17T05:14:50;23;23;
47079;PMS5003;33067;49.296;14.470;2022-07-17T05:17:16;19;19;
47079;PMS5003;33067;49.296;14.470;2022-07-17T05:19:41;21;21;
47079;PMS5003;33067;49.296;14.470;2022-07-17T05:22:06;19;19;
47079;PMS5003;33067;49.296;14.470;2022-07-17T05:24:33;17;16;
47079;PMS5003;33067;49.296;14.470;2022-07-17T05:26:58;16;16;
47079;PMS5003;33067;49.296;14.470;2022-07-17T05:29:23;14;14;
47079;PMS5003;33067;49.296;14.470;2022-07-17T05:31:49;14;14;
47079;PMS5003;33067;49.296;14.470;2022-07-17T05:34:17;16;14;
47079;PMS5003;33067;49.296;14.470;2022-07-17T05:37:02;14;14;
47079;PMS5003;33067;49.296;14.470;2022-07-17T05:39:05;16;16;
47079;PMS5003;33067;49.296;14.470;2022-07-17T05:41:30;13;13;
47079;PMS5003;33067;49.296;14.470;2022-07-17T05:43:55;15;15;
47079;PMS5003;33067;49.296;14.470;2022-07-17T05:46:20;15;15;
47079;PMS5003;33067;49.296;14.470;2022-07-17T05:48:45;15;15;
47079;PMS5003;33067;49.296;14.470;2022-07-17T05:51:10;14;14;
47079;PMS5003;33067;49.296;14.470;2022-07-17T05:53:35;16;16;
47079;PMS5003;33067;49.296;14.470;2022-07-17T05:56:00;15;14;
47079;PMS5003;33067;49.296;14.470;2022-07-17T05:58:26;15;15;
47079;PMS5003;33067;49.296;14.470;2022-07-17T06:00:51;12;12;
47079;PMS5003;33067;49.296;14.470;2022-07-17T06:03:16;12;12;
47079;PMS5003;33067;49.296;14.470;2022-07-17T06:05:42;11;11;
47079;PMS5003;33067;49.296;14.470;2022-07-17T06:08:08;13;13;
47079;PMS5003;33067;49.296;14.470;2022-07-17T06:10:34;14;14;
47079;PMS5003;33067;49.296;14.470;2022-07-17T06:13:00;12;10;
47079;PMS5003;33067;49.296;14.470;2022-07-17T06:15:26;12;10;
47079;PMS5003;33067;49.296;14.470;2022-07-17T06:17:52;12;12;
47079;PMS5003;33067;49.296;14.470;2022-07-17T06:20:17;11;11;
47079;PMS5003;33067;49.296;14.470;2022-07-17T06:22:44;7;7;
47079;PMS5003;33067;49.296;14.470;2022-07-17T06:25:09;7;7;
47079;PMS5003;33067;49.296;14.470;2022-07-17T06:27:35;8;8;
47079;PMS5003;33067;49.296;14.470;2022-07-17T06:30:00;6;6;
47079;PMS5003;33067;49.296;14.470;2022-07-17T06:32:26;6;6;
47079;PMS5003;33067;49.296;14.470;2022-07-17T06:34:52;5;5;
47079;PMS5003;33067;49.296;14.470;2022-07-17T06:37:18;7;7;
47079;PMS5003;33067;49.296;14.470;2022-07-17T06:39:43;7;7;
47079;PMS5003;33067;49.296;14.470;2022-07-17T06:42:09;8;8;
47079;PMS5003;33067;49.296;14.470;2022-07-17T06:44:35;8;8;
47079;PMS5003;33067;49.296;14.470;2022-07-17T06:47:01;8;7;
47079;PMS5003;33067;49.296;14.470;2022-07-17T06:49:32;4;4;
47079;PMS5003;33067;49.296;14.470;2022-07-17T06:51:52;7;5;
47079;PMS5003;33067;49.296;14.470;2022-07-17T06:54:18;6;5;
47079;PMS5003;33067;49.296;14.470;2022-07-17T06:56:44;5;5;
47079;PMS5003;33067;49.296;14.470;2022-07-17T06:59:10;7;6;
47079;PMS5003;33067;49.296;14.470;2022-07-17T07:01:36;6;6;
47079;PMS5003;33067;49.296;14.470;2022-07-17T07:04:02;5;5;
47079;PMS5003;33067;49.296;14.470;2022-07-17T07:06:28;7;7;
47079;PMS5003;33067;49.296;14.470;2022-07-17T07:08:54;5;5;
47079;PMS5003;33067;49.296;14.470;2022-07-17T07:11:19;7;5;
47079;PMS5003;33067;49.296;14.470;2022-07-17T07:13:50;4;4;
47079;PMS5003;33067;49.296;14.470;2022-07-17T07:16:10;5;5;
47079;PMS5003;33067;49.296;14.470;2022-07-17T07:18:36;5;5;
47079;PMS5003;33067;49.296;14.470;2022-07-17T07:21:02;5;4;
47079;PMS5003;33067;49.296;14.470;2022-07-17T07:23:27;6;4;
47079;PMS5003;33067;49.296;14.470;2022-07-17T07:25:53;4;4;
47079;PMS5003;33067;49.296;14.470;2022-07-17T07:28:19;1;1;
47079;PMS5003;33067;49.296;14.470;2022-07-17T07:31:08;4;4;
47079;PMS5003;33067;49.296;14.470;2022-07-17T07:33:11;3;3;
47079;PMS5003;33067;49.296;14.470;2022-07-17T07:35:36;5;5;
47079;PMS5003;33067;49.296;14.470;2022-07-17T07:38:01;3;3;
47079;PMS5003;33067;49.296;14.470;2022-07-17T07:40:27;4;3;
47079;PMS5003;33067;49.296;14.470;2022-07-17T07:42:52;2;2;
47079;PMS5003;33067;49.296;14.470;2022-07-17T07:45:23;2;2;
47079;PMS5003;33067;49.296;14.470;2022-07-17T07:47:45;3;3;
47079;PMS5003;33067;49.296;14.470;2022-07-17T07:50:15;1;1;
47079;PMS5003;33067;49.296;14.470;2022-07-17T07:52:35;2;2;
47079;PMS5003;33067;49.296;14.470;2022-07-17T07:55:01;3;3;
47079;PMS5003;33067;49.296;14.470;2022-07-17T07:57:27;4;4;
47079;PMS5003;33067;49.296;14.470;2022-07-17T07:59:53;3;3;
47079;PMS5003;33067;49.296;14.470;2022-07-17T08:02:19;4;4;
47079;PMS5003;33067;49.296;14.470;2022-07-17T08:04:44;2;2;
47079;PMS5003;33067;49.296;14.470;2022-07-17T08:07:09;16;16;
47079;PMS5003;33067;49.296;14.470;2022-07-17T08:09:35;77;77;
47079;PMS5003;33067;49.296;14.470;2022-07-17T08:12:00;14;14;
47079;PMS5003;33067;49.296;14.470;2022-07-17T08:14:26;5;5;
47079;PMS5003;33067;49.296;14.470;2022-07-17T08:16:51;3;3;
47079;PMS5003;33067;49.296;14.470;2022-07-17T08:19:17;5;4;
47079;PMS5003;33067;49.296;14.470;2022-07-17T08:21:43;3;3;
47079;PMS5003;33067;49.296;14.470;2022-07-17T08:24:09;5;5;
47079;PMS5003;33067;49.296;14.470;2022-07-17T08:26:34;3;3;
47079;PMS5003;33067;49.296;14.470;2022-07-17T08:29:00;4;4;
47079;PMS5003;33067;49.296;14.470;2022-07-17T08:31:26;3;3;
47079;PMS5003;33067;49.296;14.470;2022-07-17T08:33:56;3;3;
47079;PMS5003;33067;49.296;14.470;2022-07-17T08:36:26;3;3;
47079;PMS5003;33067;49.296;14.470;2022-07-17T08:41:31;3;3;
47079;PMS5003;33067;49.296;14.470;2022-07-17T08:43:54;3;3;
47079;PMS5003;33067;49.296;14.470;2022-07-17T08:50:51;4;4;
47079;PMS5003;33067;49.296;14.470;2022-07-17T08:53:17;5;3;
47079;PMS5003;33067;49.296;14.470;2022-07-17T08:55:43;6;5;
47079;PMS5003;33067;49.296;14.470;2022-07-17T08:58:13;6;4;
47079;PMS5003;33067;49.296;14.470;2022-07-17T09:00:34;3;3;
47079;PMS5003;33067;49.296;14.470;2022-07-17T09:03:01;2;2;
47079;PMS5003;33067;49.296;14.470;2022-07-17T09:05:27;6;5;
47079;PMS5003;33067;49.296;14.470;2022-07-17T09:07:51;5;3;
47079;PMS5003;33067;49.296;14.470;2022-07-17T09:10:17;3;3;
47079;PMS5003;33067;49.296;14.470;2022-07-17T09:12:44;3;3;
47079;PMS5003;33067;49.296;14.470;2022-07-17T09:15:14;2;2;
47079;PMS5003;33067;49.296;14.470;2022-07-17T09:17:34;4;4;
47079;PMS5003;33067;49.296;14.470;2022-07-17T09:20:00;5;5;
47079;PMS5003;33067;49.296;14.470;2022-07-17T09:22:26;10;9;
47079;PMS5003;33067;49.296;14.470;2022-07-17T09:24:52;7;7;
47079;PMS5003;33067;49.296;14.470;2022-07-17T09:29:50;3;3;
47079;PMS5003;33067;49.296;14.470;2022-07-17T09:32:09;5;4;
47079;PMS5003;33067;49.296;14.470;2022-07-17T09:37:01;4;3;
47079;PMS5003;33067;49.296;14.470;2022-07-17T09:41:51;4;4;
47079;PMS5003;33067;49.296;14.470;2022-07-17T09:44:17;2;2;
47079;PMS5003;33067;49.296;14.470;2022-07-17T09:46:43;3;3;
47079;PMS5003;33067;49.296;14.470;2022-07-17T09:49:08;2;2;
47079;PMS5003;33067;49.296;14.470;2022-07-17T09:51:35;2;2;
47079;PMS5003;33067;49.296;14.470;2022-07-17T09:54:00;4;3;
47079;PMS5003;33067;49.296;14.470;2022-07-17T09:56:26;3;3;
47079;PMS5003;33067;49.296;14.470;2022-07-17T09:58:52;2;2;
47079;PMS5003;33067;49.296;14.470;2022-07-17T10:01:18;4;3;
47079;PMS5003;33067;49.296;14.470;2022-07-17T10:03:43;4;3;
47079;PMS5003;33067;49.296;14.470;2022-07-17T10:06:08;3;3;
47079;PMS5003;33067;49.296;14.470;2022-07-17T10:08:39;4;3;
47079;PMS5003;33067;49.296;14.470;2022-07-17T10:11:00;2;2;
47079;PMS5003;33067;49.296;14.470;2022-07-17T10:13:26;2;2;
47079;PMS5003;33067;49.296;14.470;2022-07-17T10:15:51;2;2;
47079;PMS5003;33067;49.296;14.470;2022-07-17T10:18:17;3;3;
47079;PMS5003;33067;49.296;14.470;2022-07-17T10:20:42;3;3;
47079;PMS5003;33067;49.296;14.470;2022-07-17T10:23:14;1;1;
47079;PMS5003;33067;49.296;14.470;2022-07-17T10:25:34;2;2;
47079;PMS5003;33067;49.296;14.470;2022-07-17T10:28:00;4;2;
47079;PMS5003;33067;49.296;14.470;2022-07-17T10:30:27;3;3;
47079;PMS5003;33067;49.296;14.470;2022-07-17T10:32:52;2;1;
47079;PMS5003;33067;49.296;14.470;2022-07-17T10:35:17;2;2;
47079;PMS5003;33067;49.296;14.470;2022-07-17T10:37:42;4;3;
47079;PMS5003;33067;49.296;14.470;2022-07-17T10:40:16;2;2;
47079;PMS5003;33067;49.296;14.470;2022-07-17T10:42:40;3;3;
47079;PMS5003;33067;49.296;14.470;2022-07-17T10:47:25;2;2;
47079;PMS5003;33067;49.296;14.470;2022-07-17T10:49:51;2;2;
47079;PMS5003;33067;49.296;14.470;2022-07-17T10:52:16;1;1;
47079;PMS5003;33067;49.296;14.470;2022-07-17T10:54:42;2;2;
47079;PMS5003;33067;49.296;14.470;2022-07-17T10:57:08;3;3;
47079;PMS5003;33067;49.296;14.470;2022-07-17T10:59:34;3;3;
47079;PMS5003;33067;49.296;14.470;2022-07-17T11:01:59;2;2;
47079;PMS5003;33067;49.296;14.470;2022-07-17T11:04:25;4;2;
47079;PMS5003;33067;49.296;14.470;2022-07-17T11:06:51;2;2;
47079;PMS5003;33067;49.296;14.470;2022-07-17T11:09:21;3;3;
47079;PMS5003;33067;49.296;14.470;2022-07-17T11:11:44;3;2;
47079;PMS5003;33067;49.296;14.470;2022-07-17T11:14:09;2;2;
47079;PMS5003;33067;49.296;14.470;2022-07-17T11:16:34;2;2;
47079;PMS5003;33067;49.296;14.470;2022-07-17T11:18:59;3;3;
47079;PMS5003;33067;49.296;14.470;2022-07-17T11:21:25;3;3;
47079;PMS5003;33067;49.296;14.470;2022-07-17T11:23:52;2;2;
47079;PMS5003;33067;49.296;14.470;2022-07-17T11:26:17;2;2;
47079;PMS5003;33067;49.296;14.470;2022-07-17T11:28:43;4;2;
47079;PMS5003;33067;49.296;14.470;2022-07-17T11:33:34;1;1;
47079;PMS5003;33067;49.296;14.470;2022-07-17T11:35:59;3;3;
47079;PMS5003;33067;49.296;14.470;2022-07-17T11:38:26;1;1;
47079;PMS5003;33067;49.296;14.470;2022-07-17T11:40:51;2;2;
47079;PMS5003;33067;49.296;14.470;2022-07-17T11:43:17;1;1;
47079;PMS5003;33067;49.296;14.470;2022-07-17T11:45:42;2;2;
47079;PMS5003;33067;49.296;14.470;2022-07-17T11:48:08;1;1;
47079;PMS5003;33067;49.296;14.470;2022-07-17T11:50:34;3;3;
47079;PMS5003;33067;49.296;14.470;2022-07-17T11:53:00;2;2;
47079;PMS5003;33067;49.296;14.470;2022-07-17T11:55:25;2;2;
47079;PMS5003;33067;49.296;14.470;2022-07-17T11:57:51;1;1;
47079;PMS5003;33067;49.296;14.470;2022-07-17T12:00:17;2;2;
47079;PMS5003;33067;49.296;14.470;2022-07-17T12:02:42;1;1;
47079;PMS5003;33067;49.296;14.470;2022-07-17T12:05:08;2;1;
47079;PMS5003;33067;49.296;14.470;2022-07-17T12:07:39;2;2;
47079;PMS5003;33067;49.296;14.470;2022-07-17T12:09:59;2;2;
47079;PMS5003;33067;49.296;14.470;2022-07-17T12:12:25;2;2;
47079;PMS5003;33067;49.296;14.470;2022-07-17T12:14:51;2;2;
47079;PMS5003;33067;49.296;14.470;2022-07-17T12:17:16;2;2;
47079;PMS5003;33067;49.296;14.470;2022-07-17T12:19:42;2;2;
47079;PMS5003;33067;49.296;14.470;2022-07-17T12:22:08;2;2;
47079;PMS5003;33067;49.296;14.470;2022-07-17T12:24:39;2;2;
47079;PMS5003;33067;49.296;14.470;2022-07-17T12:27:00;2;2;
47079;PMS5003;33067;49.296;14.470;2022-07-17T12:29:30;2;2;
47079;PMS5003;33067;49.296;14.470;2022-07-17T12:34:16;2;2;
47079;PMS5003;33067;49.296;14.470;2022-07-17T12:36:42;2;2;
47079;PMS5003;33067;49.296;14.470;2022-07-17T12:39:08;1;1;
47079;PMS5003;33067;49.296;14.470;2022-07-17T12:41:33;2;2;
47079;PMS5003;33067;49.296;14.470;2022-07-17T12:43:59;0;0;
47079;PMS5003;33067;49.296;14.470;2022-07-17T12:46:25;3;3;
47079;PMS5003;33067;49.296;14.470;2022-07-17T12:48:51;1;1;
47079;PMS5003;33067;49.296;14.470;2022-07-17T12:51:17;1;1;
47079;PMS5003;33067;49.296;14.470;2022-07-17T12:53:47;2;2;
47079;PMS5003;33067;49.296;14.470;2022-07-17T12:56:08;1;0;
47079;PMS5003;33067;49.296;14.470;2022-07-17T12:58:34;2;2;
47079;PMS5003;33067;49.296;14.470;2022-07-17T13:01:00;3;3;
47079;PMS5003;33067;49.296;14.470;2022-07-17T13:03:25;4;2;
47079;PMS5003;33067;49.296;14.470;2022-07-17T13:05:51;6;4;
47079;PMS5003;33067;49.296;14.470;2022-07-17T13:08:17;6;6;
47079;PMS5003;33067;49.296;14.470;2022-07-17T13:10:43;5;5;
47079;PMS5003;33067;49.296;14.470;2022-07-17T13:13:08;20;19;
47079;PMS5003;33067;49.296;14.470;2022-07-17T13:15:34;21;21;
47079;PMS5003;33067;49.296;14.470;2022-07-17T13:18:00;19;19;
47079;PMS5003;33067;49.296;14.470;2022-07-17T13:20:26;20;20;
47079;PMS5003;33067;49.296;14.470;2022-07-17T13:22:51;18;18;
47079;PMS5003;33067;49.296;14.470;2022-07-17T13:25:17;21;21;
47079;PMS5003;33067;49.296;14.470;2022-07-17T13:27:43;19;19;
47079;PMS5003;33067;49.296;14.470;2022-07-17T13:30:10;19;19;
47079;PMS5003;33067;49.296;14.470;2022-07-17T13:32:35;20;19;
47079;PMS5003;33067;49.296;14.470;2022-07-17T13:35:01;13;13;
47079;PMS5003;33067;49.296;14.470;2022-07-17T13:37:26;15;15;
47079;PMS5003;33067;49.296;14.470;2022-07-17T13:39:52;4;4;
47079;PMS5003;33067;49.296;14.470;2022-07-17T13:42:17;1;1;
47079;PMS5003;33067;49.296;14.470;2022-07-17T13:44:43;2;2;
47079;PMS5003;33067;49.296;14.470;2022-07-17T13:47:09;6;6;
47079;PMS5003;33067;49.296;14.470;2022-07-17T13:49:35;15;15;
47079;PMS5003;33067;49.296;14.470;2022-07-17T13:52:01;15;15;
47079;PMS5003;33067;49.296;14.470;2022-07-17T13:54:26;14;14;
47079;PMS5003;33067;49.296;14.470;2022-07-17T13:56:52;17;17;
47079;PMS5003;33067;49.296;14.470;2022-07-17T13:59:18;13;13;
47079;PMS5003;33067;49.296;14.470;2022-07-17T14:01:44;14;14;
47079;PMS5003;33067;49.296;14.470;2022-07-17T14:04:09;1;1;
47079;PMS5003;33067;49.296;14.470;2022-07-17T14:06:35;3;3;
47079;PMS5003;33067;49.296;14.470;2022-07-17T14:09:01;2;2;
47079;PMS5003;33067;49.296;14.470;2022-07-17T14:11:26;1;1;
47079;PMS5003;33067;49.296;14.470;2022-07-17T14:13:52;3;1;
47079;PMS5003;33067;49.296;14.470;2022-07-17T14:16:18;2;2;
47079;PMS5003;33067;49.296;14.470;2022-07-17T14:18:44;3;2;
47079;PMS5003;33067;49.296;14.470;2022-07-17T14:21:09;2;2;
47079;PMS5003;33067;49.296;14.470;2022-07-17T14:23:35;2;2;
47079;PMS5003;33067;49.296;14.470;2022-07-17T14:26:01;2;2;
47079;PMS5003;33067;49.296;14.470;2022-07-17T14:28:26;2;2;
47079;PMS5003;33067;49.296;14.470;2022-07-17T14:30:52;3;3;
47079;PMS5003;33067;49.296;14.470;2022-07-17T14:33:18;2;2;
47079;PMS5003;33067;49.296;14.470;2022-07-17T14:35:44;2;2;
47079;PMS5003;33067;49.296;14.470;2022-07-17T14:38:09;2;2;
47079;PMS5003;33067;49.296;14.470;2022-07-17T14:40:35;12;12;
47079;PMS5003;33067;49.296;14.470;2022-07-17T14:43:01;10;10;
47079;PMS5003;33067;49.296;14.470;2022-07-17T14:45:27;5;5;
47079;PMS5003;33067;49.296;14.470;2022-07-17T14:47:52;2;2;
47079;PMS5003;33067;49.296;14.470;2022-07-17T14:50:18;3;2;
47079;PMS5003;33067;49.296;14.470;2022-07-17T14:52:44;1;1;
47079;PMS5003;33067;49.296;14.470;2022-07-17T14:55:10;2;2;
47079;PMS5003;33067;49.296;14.470;2022-07-17T14:57:35;3;3;
47079;PMS5003;33067;49.296;14.470;2022-07-17T15:00:01;4;3;
47079;PMS5003;33067;49.296;14.470;2022-07-17T15:02:27;2;2;
47079;PMS5003;33067;49.296;14.470;2022-07-17T15:04:52;2;2;
47079;PMS5003;33067;49.296;14.470;2022-07-17T15:07:18;1;1;
47079;PMS5003;33067;49.296;14.470;2022-07-17T15:09:44;5;3;
47079;PMS5003;33067;49.296;14.470;2022-07-17T15:12:10;1;1;
47079;PMS5003;33067;49.296;14.470;2022-07-17T15:14:35;2;2;
47079;PMS5003;33067;49.296;14.470;2022-07-17T15:17:01;3;3;
47079;PMS5003;33067;49.296;14.470;2022-07-17T15:19:27;2;2;
47079;PMS5003;33067;49.296;14.470;2022-07-17T15:21:53;3;3;
47079;PMS5003;33067;49.296;14.470;2022-07-17T15:24:18;3;3;
47079;PMS5003;33067;49.296;14.470;2022-07-17T15:26:44;1;1;
47079;PMS5003;33067;49.296;14.470;2022-07-17T15:29:10;1;1;
47079;PMS5003;33067;49.296;14.470;2022-07-17T15:31:36;4;3;
47079;PMS5003;33067;49.296;14.470;2022-07-17T15:34:01;2;2;
47079;PMS5003;33067;49.296;14.470;2022-07-17T15:36:27;3;3;
47079;PMS5003;33067;49.296;14.470;2022-07-17T15:38:53;2;2;
47079;PMS5003;33067;49.296;14.470;2022-07-17T15:41:18;2;2;
47079;PMS5003;33067;49.296;14.470;2022-07-17T15:43:44;0;0;
47079;PMS5003;33067;49.296;14.470;2022-07-17T15:46:10;2;2;
47079;PMS5003;33067;49.296;14.470;2022-07-17T15:48:36;2;2;
47079;PMS5003;33067;49.296;14.470;2022-07-17T15:51:01;3;3;
47079;PMS5003;33067;49.296;14.470;2022-07-17T15:53:27;5;5;
47079;PMS5003;33067;49.296;14.470;2022-07-17T15:55:53;6;6;
47079;PMS5003;33067;49.296;14.470;2022-07-17T15:58:19;6;5;
47079;PMS5003;33067;49.296;14.470;2022-07-17T16:00:44;6;6;
47079;PMS5003;33067;49.296;14.470;2022-07-17T16:03:10;9;9;
47079;PMS5003;33067;49.296;14.470;2022-07-17T16:05:36;12;9;
47079;PMS5003;33067;49.296;14.470;2022-07-17T16:08:02;6;6;
47079;PMS5003;33067;49.296;14.470;2022-07-17T16:10:27;11;11;
47079;PMS5003;33067;49.296;14.470;2022-07-17T16:12:53;12;12;
47079;PMS5003;33067;49.296;14.470;2022-07-17T16:15:19;12;11;
47079;PMS5003;33067;49.296;14.470;2022-07-17T16:17:45;5;5;
47079;PMS5003;33067;49.296;14.470;2022-07-17T16:20:11;2;2;
47079;PMS5003;33067;49.296;14.470;2022-07-17T16:22:36;1;1;
47079;PMS5003;33067;49.296;14.470;2022-07-17T16:25:03;3;3;
47079;PMS5003;33067;49.296;14.470;2022-07-17T16:27:28;2;2;
47079;PMS5003;33067;49.296;14.470;2022-07-17T16:29:54;3;3;